sensor_id;sensor_type;location;lat;lon;timestamp;temperature;humidity
40249;DHT22;25969;49.970;11.062;2023-04-24T04:08:26;10.50;99.90
40249;DHT22;25969;49.970;11.062;2023-04-24T04:18:28;10.50;99.90
40249;DHT22;25969;49.970;11.062;2023-04-24T04:28:29;10.50;99.90
40249;DHT22;25969;49.970;11.062;2023-04-24T04:38:33;10.70;99.90
40249;DHT22;25969;49.970;11.062;2023-04-24T04:49:06;10.60;99.90
40249;DHT22;25969;49.970;11.062;2023-04-24T04:59:09;10.70;99.90
40249;DHT22;25969;49.970;11.062;2023-04-24T05:09:13;10.70;99.90
40249;DHT22;25969;49.970;11.062;2023-04-24T05:19:22;10.70;99.90
40249;DHT22;25969;49.970;11.062;2023-04-24T05:29:23;10.90;99.90
40249;DHT22;25969;49.970;11.062;2023-04-24T05:39:25;10.90;99.90
40249;DHT22;25969;49.970;11.062;2023-04-24T05:49:26;11.00;99.90
40249;DHT22;25969;49.970;11.062;2023-04-24T05:59:28;10.90;99.90
40249;DHT22;25969;49.970;11.062;2023-04-24T06:09:29;11.00;99.90
40249;DHT22;25969;49.970;11.062;2023-04-24T06:19:30;11.20;99.90
40249;DHT22;25969;49.970;11.062;2023-04-24T06:29:31;11.20;99.90
40249;DHT22;25969;49.970;11.062;2023-04-24T06:39:32;11.10;99.90
40249;DHT22;25969;49.970;11.062;2023-04-24T06:49:33;10.50;99.90
40249;DHT22;25969;49.970;11.062;2023-04-24T06:59:34;10.40;99.90
40249;DHT22;25969;49.970;11.062;2023-04-24T07:09:35;10.30;99.90
40249;DHT22;25969;49.970;11.062;2023-04-24T07:19:37;10.60;99.90
40249;DHT22;25969;49.970;11.062;2023-04-24T07:29:37;10.80;99.90
40249;DHT22;25969;49.970;11.062;2023-04-24T07:39:38;10.70;99.90
40249;DHT22;25969;49.970;11.062;2023-04-24T07:49:39;11.50;99.90
40249;DHT22;25969;49.970;11.062;2023-04-24T07:59:40;12.10;99.90
40249;DHT22;25969;49.970;11.062;2023-04-24T08:09:41;12.00;99.90
40249;DHT22;25969;49.970;11.062;2023-04-24T08:19:41;12.00;98.90
40249;DHT22;25969;49.970;11.062;2023-04-24T08:29:49;14.10;92.60
40249;DHT22;25969;49.970;11.062;2023-04-24T08:39:50;13.20;90.10
40249;DHT22;25969;49.970;11.062;2023-04-24T08:49:51;13.00;91.00
40249;DHT22;25969;49.970;11.062;2023-04-24T08:59:53;13.60;84.70
40249;DHT22;25969;49.970;11.062;2023-04-24T09:09:54;12.00;90.50
40249;DHT22;25969;49.970;11.062;2023-04-24T09:19:55;11.70;91.20
40249;DHT22;25969;49.970;11.062;2023-04-24T09:29:56;12.20;88.80
40249;DHT22;25969;49.970;11.062;2023-04-24T09:40:12;12.50;88.10
40249;DHT22;25969;49.970;11.062;2023-04-24T09:50:14;13.00;86.10
40249;DHT22;25969;49.970;11.062;2023-04-24T10:00:21;12.30;86.40
40249;DHT22;25969;49.970;11.062;2023-04-24T10:10:23;12.60;86.90
40249;DHT22;25969;49.970;11.062;2023-04-24T10:20:25;12.30;87.90
40249;DHT22;25969;49.970;11.062;2023-04-24T10:30:32;12.20;87.00
40249;DHT22;25969;49.970;11.062;2023-04-24T10:40:36;11.40;90.50
40249;DHT22;25969;49.970;11.062;2023-04-24T10:50:47;11.20;87.10
40249;DHT22;25969;49.970;11.062;2023-04-24T11:00:58;11.90;88.00
40249;DHT22;25969;49.970;11.062;2023-04-24T11:11:13;12.90;83.80
40249;DHT22;25969;49.970;11.062;2023-04-24T11:21:17;13.10;79.70
40249;DHT22;25969;49.970;11.062;2023-04-24T11:31:38;12.50;81.90
40249;DHT22;25969;49.970;11.062;2023-04-24T11:41:39;11.90;85.30
40249;DHT22;25969;49.970;11.062;2023-04-24T11:51:40;12.50;83.80
40249;DHT22;25969;49.970;11.062;2023-04-24T12:01:47;12.80;82.80
40249;DHT22;25969;49.970;11.062;2023-04-24T12:11:55;14.30;79.00
40249;DHT22;25969;49.970;11.062;2023-04-24T12:22:01;13.00;79.70
40249;DHT22;25969;49.970;11.062;2023-04-24T12:32:02;12.40;81.20
40249;DHT22;25969;49.970;11.062;2023-04-24T12:42:03;11.80;78.80
40249;DHT22;25969;49.970;11.062;2023-04-24T12:52:04;16.20;70.40
40249;DHT22;25969;49.970;11.062;2023-04-24T13:02:06;12.30;79.30
40249;DHT22;25969;49.970;11.062;2023-04-24T13:12:07;11.70;83.70
40249;DHT22;25969;49.970;11.062;2023-04-24T13:22:12;13.20;82.40
40249;DHT22;25969;49.970;11.062;2023-04-24T13:32:13;13.50;81.60
40249;DHT22;25969;49.970;11.062;2023-04-24T13:42:14;13.00;78.90
40249;DHT22;25969;49.970;11.062;2023-04-24T13:52:15;12.40;82.00
40249;DHT22;25969;49.970;11.062;2023-04-24T14:02:16;12.50;82.20
40249;DHT22;25969;49.970;11.062;2023-04-24T14:12:17;11.80;82.80
40249;DHT22;25969;49.970;11.062;2023-04-24T14:22:20;12.10;82.40
40249;DHT22;25969;49.970;11.062;2023-04-24T14:32:20;11.40;91.30
40249;DHT22;25969;49.970;11.062;2023-04-24T14:42:23;9.60;99.90
40249;DHT22;25969;49.970;11.062;2023-04-24T14:52:25;9.40;99.90
40249;DHT22;25969;49.970;11.062;2023-04-24T15:02:25;9.60;99.90
40249;DHT22;25969;49.970;11.062;2023-04-24T15:12:26;10.50;99.90
40249;DHT22;25969;49.970;11.062;2023-04-24T15:22:27;11.50;99.90
40249;DHT22;25969;49.970;11.062;2023-04-24T15:32:27;11.30;99.90
40249;DHT22;25969;49.970;11.062;2023-04-24T15:42:31;10.80;99.90
40249;DHT22;25969;49.970;11.062;2023-04-24T15:52:32;10.10;99.90
40249;DHT22;25969;49.970;11.062;2023-04-24T16:02:33;10.20;99.90
40249;DHT22;25969;49.970;11.062;2023-04-24T16:12:34;10.40;99.90
40249;DHT22;25969;49.970;11.062;2023-04-24T16:22:35;10.50;99.90
40249;DHT22;25969;49.970;11.062;2023-04-24T16:32:35;10.50;99.50
40249;DHT22;25969;49.970;11.062;2023-04-24T16:42:37;10.30;98.60
40249;DHT22;25969;49.970;11.062;2023-04-24T16:52:38;10.20;98.40
40249;DHT22;25969;49.970;11.062;2023-04-24T17:02:39;10.40;98.20
40249;DHT22;25969;49.970;11.062;2023-04-24T17:12:39;10.10;98.10
40249;DHT22;25969;49.970;11.062;2023-04-24T17:22:40;9.00;99.90
40249;DHT22;25969;49.970;11.062;2023-04-24T17:32:41;8.70;99.90
40249;DHT22;25969;49.970;11.062;2023-04-24T17:42:42;8.80;99.90
40249;DHT22;25969;49.970;11.062;2023-04-24T17:52:43;9.10;99.90
40249;DHT22;25969;49.970;11.062;2023-04-24T18:02:44;9.10;99.90
40249;DHT22;25969;49.970;11.062;2023-04-24T18:12:46;8.90;99.90
40249;DHT22;25969;49.970;11.062;2023-04-24T18:22:47;8.50;99.90
40249;DHT22;25969;49.970;11.062;2023-04-24T18:32:48;8.00;99.90
40249;DHT22;25969;49.970;11.062;2023-04-24T18:42:49;7.90;99.90
40249;DHT22;25969;49.970;11.062;2023-04-24T18:52:51;7.80;99.90
40249;DHT22;25969;49.970;11.062;2023-04-24T19:02:51;7.60;99.90
40249;DHT22;25969;49.970;11.062;2023-04-24T19:12:52;7.20;99.90
40249;DHT22;25969;49.970;11.062;2023-04-24T19:22:56;7.40;99.90
40249;DHT22;25969;49.970;11.062;2023-04-24T19:32:57;7.60;99.90
40249;DHT22;25969;49.970;11.062;2023-04-24T19:42:58;7.80;99.90
40249;DHT22;25969;49.970;11.062;2023-04-24T19:52:59;7.80;99.90
40249;DHT22;25969;49.970;11.062;2023-04-24T20:03:00;8.00;99.90
40249;DHT22;25969;49.970;11.062;2023-04-24T20:13:02;8.20;99.90
40249;DHT22;25969;49.970;11.062;2023-04-24T20:23:03;8.50;99.90
40249;DHT22;25969;49.970;11.062;2023-04-24T20:33:04;8.60;99.90
40249;DHT22;25969;49.970;11.062;2023-04-24T20:43:05;8.50;99.90
40249;DHT22;25969;49.970;11.062;2023-04-24T20:53:07;8.50;99.90
40249;DHT22;25969;49.970;11.062;2023-04-24T21:03:08;8.40;99.90
40249;DHT22;25969;49.970;11.062;2023-04-24T21:13:09;8.30;99.90
40249;DHT22;25969;49.970;11.062;2023-04-24T21:23:10;8.40;99.90
40249;DHT22;25969;49.970;11.062;2023-04-24T21:33:11;8.20;99.90
40249;DHT22;25969;49.970;11.062;2023-04-24T21:43:12;8.20;99.90
40249;DHT22;25969;49.970;11.062;2023-04-24T21:53:12;8.20;99.90
